createdAt,value
2018-11-12T00:01:33.915Z,10.60
2018-11-12T00:04:01.048Z,10.70
2018-11-12T00:06:28.566Z,10.70
2018-11-12T00:08:55.578Z,10.70
2018-11-12T00:11:22.682Z,10.70
2018-11-12T00:13:49.783Z,10.70
2018-11-12T00:16:16.804Z,10.80
2018-11-12T00:18:43.832Z,10.80
2018-11-12T00:21:10.908Z,10.80
2018-11-12T00:23:37.965Z,10.80
2018-11-12T00:26:05.307Z,10.80
2018-11-12T00:28:32.692Z,10.80
2018-11-12T00:30:59.736Z,10.80
2018-11-12T00:33:26.746Z,10.80
2018-11-12T00:35:53.967Z,10.90
2018-11-12T00:38:20.987Z,10.90
2018-11-12T00:40:48.095Z,10.90
2018-11-12T00:43:15.803Z,10.80
2018-11-12T00:45:42.908Z,10.80
2018-11-12T00:48:09.968Z,10.70
2018-11-12T00:50:37.023Z,10.70
2018-11-12T00:53:04.059Z,10.80
2018-11-12T00:55:31.074Z,10.80
2018-11-12T00:57:58.200Z,10.90
2018-11-12T01:00:25.784Z,10.90
2018-11-12T01:02:52.835Z,10.90
2018-11-12T01:05:20.514Z,10.90
2018-11-12T01:07:48.192Z,10.90
2018-11-12T01:10:16.259Z,10.90
2018-11-12T01:12:43.934Z,10.80
2018-11-12T01:15:13.198Z,10.80
2018-11-12T01:17:40.446Z,10.80
2018-11-12T01:20:09.169Z,10.70
2018-11-12T01:22:36.174Z,10.70
2018-11-12T01:25:03.367Z,10.80
2018-11-12T01:27:30.405Z,10.70
2018-11-12T01:29:57.871Z,10.70
2018-11-12T01:32:24.929Z,10.80
2018-11-12T01:34:52.396Z,10.80
2018-11-12T01:37:19.473Z,10.80
2018-11-12T01:39:46.502Z,10.80
2018-11-12T01:42:13.719Z,10.80
2018-11-12T01:44:40.686Z,10.90
2018-11-12T01:47:07.676Z,10.80
2018-11-12T01:49:35.072Z,10.80
2018-11-12T01:52:02.108Z,10.80
2018-11-12T01:54:29.148Z,10.80
2018-11-12T01:56:56.344Z,10.90
2018-11-12T01:59:23.377Z,10.90
2018-11-12T02:01:50.477Z,10.90
2018-11-12T02:04:17.499Z,10.90
2018-11-12T02:06:44.515Z,10.90
2018-11-12T02:09:12.341Z,10.90
2018-11-12T02:11:39.717Z,10.90
2018-11-12T02:14:07.076Z,11.00
2018-11-12T02:16:34.066Z,11.00
2018-11-12T02:19:01.291Z,11.00
2018-11-12T02:21:28.288Z,11.00
2018-11-12T02:23:55.317Z,11.00
2018-11-12T02:26:23.060Z,11.00
2018-11-12T02:28:50.063Z,10.90
2018-11-12T02:31:17.085Z,10.80
2018-11-12T02:33:44.173Z,10.80
2018-11-12T02:36:11.187Z,10.70
2018-11-12T02:38:38.258Z,10.70
2018-11-12T02:41:05.707Z,10.60
2018-11-12T02:43:32.746Z,10.50
2018-11-12T02:45:59.795Z,10.50
2018-11-12T02:48:27.008Z,10.50
2018-11-12T02:50:54.045Z,10.50
2018-11-12T02:53:21.078Z,10.50
2018-11-12T02:55:48.104Z,10.40
2018-11-12T02:58:15.119Z,10.40
2018-11-12T03:00:42.180Z,10.40
2018-11-12T03:03:09.583Z,10.40
2018-11-12T03:05:36.682Z,10.30
2018-11-12T03:08:03.801Z,10.30
2018-11-12T03:10:31.103Z,10.30
2018-11-12T03:12:58.149Z,10.30
2018-11-12T03:15:25.209Z,10.30
2018-11-12T03:17:52.596Z,10.30
2018-11-12T03:20:20.809Z,10.30
2018-11-12T03:22:47.880Z,10.30
2018-11-12T03:25:16.131Z,10.30
2018-11-12T03:27:43.820Z,10.30
2018-11-12T03:30:12.599Z,10.30
2018-11-12T03:32:39.692Z,10.30
2018-11-12T03:35:07.495Z,10.30
2018-11-12T03:37:34.511Z,10.30
2018-11-12T03:40:01.571Z,10.20
2018-11-12T03:42:28.591Z,10.20
2018-11-12T03:44:55.624Z,10.20
2018-11-12T03:47:23.030Z,10.20
2018-11-12T03:49:50.043Z,10.10
2018-11-12T03:52:17.046Z,10.10
2018-11-12T03:54:44.244Z,10.10
2018-11-12T03:57:11.280Z,10.10
2018-11-12T03:59:38.362Z,10.10
2018-11-12T04:02:05.851Z,10.10
2018-11-12T04:04:33.065Z,10.10
2018-11-12T04:07:00.096Z,10.10
2018-11-12T04:09:27.347Z,10.20
2018-11-12T04:11:54.648Z,10.20
2018-11-12T04:14:21.678Z,10.20
2018-11-12T04:16:48.768Z,10.30
2018-11-12T04:19:16.188Z,10.40
2018-11-12T04:21:43.275Z,10.40
2018-11-12T04:24:10.314Z,10.40
2018-11-12T04:26:37.323Z,10.50
2018-11-12T04:29:04.371Z,10.50
2018-11-12T04:31:31.461Z,10.50
2018-11-12T04:33:58.795Z,10.50
2018-11-12T04:36:25.883Z,10.50
2018-11-12T04:38:53.549Z,10.40
2018-11-12T04:41:20.596Z,10.40
2018-11-12T04:43:48.272Z,10.40
2018-11-12T04:46:15.516Z,10.30
2018-11-12T04:48:42.578Z,10.30
2018-11-12T04:51:09.852Z,10.20
2018-11-12T04:53:36.986Z,10.20
2018-11-12T04:56:04.287Z,10.30
2018-11-12T04:58:31.318Z,10.30
2018-11-12T05:00:58.631Z,10.30
2018-11-12T05:03:25.664Z,10.20
2018-11-12T05:05:52.727Z,10.20
2018-11-12T05:08:20.158Z,10.20
2018-11-12T05:10:47.196Z,10.20
2018-11-12T05:13:14.484Z,10.10
2018-11-12T05:15:41.615Z,10.10
2018-11-12T05:18:08.746Z,10.10
2018-11-12T05:20:35.768Z,10.10
2018-11-12T05:23:02.815Z,10.10
2018-11-12T05:25:29.921Z,10.10
2018-11-12T05:27:56.967Z,10.10
2018-11-12T05:30:28.164Z,10.10
2018-11-12T05:32:55.575Z,10.10
2018-11-12T05:35:24.659Z,10.20
2018-11-12T05:37:52.596Z,10.20
2018-11-12T05:40:20.824Z,10.20
2018-11-12T05:42:47.983Z,10.30
2018-11-12T05:45:16.128Z,10.30
2018-11-12T05:47:43.292Z,10.30
2018-11-12T05:50:12.704Z,10.30
2018-11-12T05:52:40.831Z,10.30
2018-11-12T05:55:09.331Z,10.30
2018-11-12T05:57:36.611Z,10.30
2018-11-12T06:00:05.241Z,10.20
2018-11-12T06:02:32.248Z,10.20
2018-11-12T06:04:59.393Z,10.20
2018-11-12T06:07:26.358Z,10.20
2018-11-12T06:09:53.403Z,10.20
2018-11-12T06:12:20.408Z,10.20
2018-11-12T06:14:48.246Z,10.20
2018-11-12T06:17:47.363Z,10.30
2018-11-12T06:20:19.004Z,10.30
2018-11-12T06:22:46.208Z,10.30
2018-11-12T06:25:15.529Z,10.20
2018-11-12T06:27:42.817Z,10.30
2018-11-12T06:30:12.470Z,10.30
2018-11-12T06:32:39.534Z,10.20
2018-11-12T06:35:07.577Z,10.30
2018-11-12T06:37:34.688Z,10.40
2018-11-12T06:40:01.735Z,10.40
2018-11-12T06:42:28.958Z,10.50
2018-11-12T06:44:56.049Z,10.50
2018-11-12T06:47:23.322Z,10.40
2018-11-12T06:49:50.622Z,10.40
2018-11-12T06:52:17.663Z,10.50
2018-11-12T06:54:44.696Z,10.60
2018-11-12T06:57:11.780Z,10.70
2018-11-12T06:59:38.875Z,10.60
2018-11-12T07:02:06.146Z,10.60
2018-11-12T07:04:33.416Z,10.50
2018-11-12T07:07:00.610Z,10.60
2018-11-12T07:09:27.589Z,10.50
2018-11-12T07:11:54.685Z,10.50
2018-11-12T07:14:21.749Z,10.50
2018-11-12T07:16:49.965Z,10.80
2018-11-12T07:19:17.042Z,11.30
2018-11-12T07:21:44.114Z,12.00
2018-11-12T07:24:11.204Z,12.40
2018-11-12T07:26:38.395Z,12.60
2018-11-12T07:29:05.476Z,13.00
2018-11-12T07:31:32.527Z,13.00
2018-11-12T07:33:59.743Z,13.30
2018-11-12T07:36:26.868Z,13.80
2018-11-12T07:38:53.908Z,14.30
2018-11-12T07:41:21.459Z,14.50
2018-11-12T07:43:48.563Z,14.40
2018-11-12T07:46:15.677Z,14.30
2018-11-12T07:48:42.856Z,14.10
2018-11-12T07:51:09.893Z,14.20
2018-11-12T07:53:36.867Z,14.30
2018-11-12T07:56:04.635Z,14.30
2018-11-12T07:58:31.693Z,14.10
2018-11-12T08:00:59.651Z,13.60
2018-11-12T08:03:26.894Z,13.10
2018-11-12T08:05:53.928Z,12.70
2018-11-12T08:08:20.947Z,12.40
2018-11-12T08:10:48.063Z,12.20
2018-11-12T08:13:15.076Z,12.20
2018-11-12T08:15:42.079Z,12.30
2018-11-12T08:18:09.387Z,12.40
2018-11-12T08:20:36.388Z,12.40
2018-11-12T08:23:03.569Z,12.40
2018-11-12T08:25:31.073Z,12.20
2018-11-12T08:27:58.067Z,11.90
2018-11-12T08:30:27.277Z,11.70
2018-11-12T08:32:55.689Z,11.60
2018-11-12T08:35:22.814Z,11.50
2018-11-12T08:37:50.533Z,11.40
2018-11-12T08:40:18.765Z,11.40
2018-11-12T08:42:45.779Z,11.50
2018-11-12T08:45:13.161Z,11.50
2018-11-12T08:47:41.272Z,11.50
2018-11-12T08:50:11.188Z,11.60
2018-11-12T08:52:38.816Z,11.60
2018-11-12T08:55:06.377Z,11.60
2018-11-12T08:57:33.348Z,11.60
2018-11-12T09:00:00.487Z,11.60
2018-11-12T09:02:27.526Z,11.60
2018-11-12T09:04:54.577Z,11.70
2018-11-12T09:07:22.002Z,11.70
2018-11-12T09:09:49.178Z,11.80
2018-11-12T09:12:16.333Z,11.80
2018-11-12T09:14:43.433Z,11.90
2018-11-12T09:17:10.444Z,12.00
2018-11-12T09:19:37.681Z,12.20
2018-11-12T09:22:04.895Z,12.20
2018-11-12T09:24:31.889Z,12.30
2018-11-12T09:26:59.087Z,12.20
2018-11-12T09:29:26.247Z,12.20
2018-11-12T09:31:53.320Z,12.30
2018-11-12T09:34:20.516Z,12.30
2018-11-12T09:36:47.856Z,12.40
2018-11-12T09:39:14.833Z,12.40
2018-11-12T09:41:41.861Z,12.40
2018-11-12T09:44:08.967Z,12.50
2018-11-12T09:46:36.034Z,12.60
2018-11-12T09:49:03.116Z,12.70
2018-11-12T09:51:30.215Z,12.80
2018-11-12T09:53:57.295Z,13.00
2018-11-12T09:56:24.760Z,13.10
2018-11-12T09:58:51.853Z,13.00
2018-11-12T10:01:19.300Z,13.00
2018-11-12T10:03:47.518Z,12.90
2018-11-12T10:06:14.581Z,13.10
2018-11-12T10:08:42.684Z,13.40
2018-11-12T10:11:11.322Z,13.80
2018-11-12T10:13:39.172Z,14.00
2018-11-12T10:16:05.355Z,14.00
2018-11-12T10:18:29.876Z,13.90
2018-11-12T10:20:57.300Z,13.90
2018-11-12T10:23:24.370Z,13.90
2018-11-12T10:25:51.724Z,13.90
2018-11-12T10:28:20.455Z,13.90
2018-11-12T10:30:47.482Z,13.80
2018-11-12T10:33:14.680Z,13.70
2018-11-12T10:35:41.747Z,13.60
2018-11-12T10:38:09.313Z,13.50
2018-11-12T10:40:36.339Z,13.50
2018-11-12T10:43:03.431Z,13.40
2018-11-12T10:45:30.484Z,13.40
2018-11-12T10:47:57.525Z,13.50
2018-11-12T10:50:24.711Z,13.50
2018-11-12T10:52:51.897Z,13.60
2018-11-12T10:55:20.585Z,13.60
2018-11-12T10:57:48.084Z,13.60
2018-11-12T11:00:26.403Z,13.40
2018-11-12T11:03:03.620Z,13.30
2018-11-12T11:05:30.796Z,13.40
2018-11-12T11:07:57.858Z,13.30
2018-11-12T11:10:26.528Z,13.20
2018-11-12T11:12:54.220Z,13.30
2018-11-12T11:15:21.259Z,13.30
2018-11-12T11:17:48.389Z,13.30
2018-11-12T11:20:15.435Z,13.30
2018-11-12T11:22:42.770Z,13.30
2018-11-12T11:25:09.959Z,13.40
2018-11-12T11:27:37.379Z,13.40
2018-11-12T11:30:07.064Z,13.50
2018-11-12T11:32:34.297Z,13.60
2018-11-12T11:35:01.358Z,13.60
2018-11-12T11:37:28.360Z,13.70
2018-11-12T11:39:55.403Z,13.60
2018-11-12T11:42:22.447Z,13.50
2018-11-12T11:44:49.522Z,13.70
2018-11-12T11:47:16.623Z,13.60
2018-11-12T11:49:43.663Z,13.70
2018-11-12T11:52:10.703Z,13.70
2018-11-12T11:54:37.850Z,13.70
2018-11-12T11:57:04.936Z,13.80
2018-11-12T11:59:31.956Z,13.80
2018-11-12T12:01:59.086Z,13.90
2018-11-12T12:04:26.077Z,14.00
2018-11-12T12:06:53.136Z,14.00
2018-11-12T12:09:20.411Z,14.00
2018-11-12T12:11:47.504Z,14.10
2018-11-12T12:14:14.860Z,14.10
2018-11-12T12:16:41.905Z,14.20
2018-11-12T12:19:09.105Z,14.30
2018-11-12T12:21:36.100Z,14.30
2018-11-12T12:24:03.843Z,14.40
2018-11-12T12:26:30.892Z,14.60
2018-11-12T12:28:57.931Z,14.60
2018-11-12T12:31:25.055Z,14.60
2018-11-12T12:33:52.079Z,14.60
2018-11-12T12:36:19.208Z,14.60
2018-11-12T12:38:46.528Z,14.60
2018-11-12T12:41:13.605Z,14.60
2018-11-12T12:43:40.627Z,14.60
2018-11-12T12:46:07.917Z,14.60
2018-11-12T12:48:35.155Z,14.60
2018-11-12T12:51:02.264Z,14.60
2018-11-12T12:53:29.432Z,14.80
2018-11-12T12:55:56.904Z,15.00
2018-11-12T12:58:24.050Z,15.10
2018-11-12T13:00:50.996Z,15.00
2018-11-12T13:03:18.024Z,15.10
2018-11-12T13:05:45.045Z,15.20
2018-11-12T13:08:12.103Z,15.20
2018-11-12T13:10:39.134Z,15.20
2018-11-12T13:13:06.220Z,15.20
2018-11-12T13:15:33.288Z,15.30
2018-11-12T13:18:00.312Z,15.30
2018-11-12T13:20:27.351Z,15.30
2018-11-12T13:22:54.771Z,15.20
2018-11-12T13:25:22.119Z,15.10
2018-11-12T13:27:49.160Z,15.10
2018-11-12T13:30:17.644Z,15.10
2018-11-12T13:32:45.285Z,15.10
2018-11-12T13:35:13.523Z,15.10
2018-11-12T13:37:40.782Z,15.00
2018-11-12T13:40:10.720Z,15.00
2018-11-12T13:42:37.743Z,15.00
2018-11-12T13:45:05.349Z,15.00
2018-11-12T13:47:32.492Z,15.00
2018-11-12T13:50:00.066Z,14.90
2018-11-12T13:52:28.042Z,14.90
2018-11-12T13:54:55.088Z,14.90
2018-11-12T13:57:22.208Z,14.90
2018-11-12T13:59:49.262Z,14.80
2018-11-12T14:02:16.287Z,14.80
2018-11-12T14:04:43.339Z,14.80
2018-11-12T14:07:10.570Z,14.80
2018-11-12T14:09:37.577Z,14.80
2018-11-12T14:12:05.030Z,14.80
2018-11-12T14:14:32.057Z,14.90
2018-11-12T14:16:59.100Z,14.90
2018-11-12T14:19:26.144Z,14.90
2018-11-12T14:21:53.243Z,14.90
2018-11-12T14:24:20.248Z,14.90
2018-11-12T14:26:47.597Z,14.80
2018-11-12T14:29:15.038Z,14.80
2018-11-12T14:31:42.085Z,14.80
2018-11-12T14:34:09.121Z,14.70
2018-11-12T14:36:36.477Z,14.70
2018-11-12T14:39:05.578Z,14.60
2018-11-12T14:41:32.618Z,14.50
2018-11-12T14:43:59.968Z,14.50
2018-11-12T14:46:26.998Z,14.40
2018-11-12T14:48:54.000Z,14.40
2018-11-12T14:51:21.314Z,14.40
2018-11-12T14:53:48.324Z,14.40
2018-11-12T14:56:15.357Z,14.40
2018-11-12T14:58:42.416Z,14.40
2018-11-12T15:01:09.521Z,14.40
2018-11-12T15:03:36.551Z,14.30
2018-11-12T15:06:03.867Z,14.30
2018-11-12T15:08:30.890Z,14.30
2018-11-12T15:10:57.948Z,14.30
2018-11-12T15:13:25.014Z,14.30
2018-11-12T15:15:52.063Z,14.30
2018-11-12T15:18:19.153Z,14.30
2018-11-12T15:20:46.626Z,14.30
2018-11-12T15:23:14.551Z,14.20
2018-11-12T15:25:41.595Z,14.20
2018-11-12T15:28:09.103Z,14.10
2018-11-12T15:30:36.115Z,14.10
2018-11-12T15:33:03.141Z,14.10
2018-11-12T15:35:30.317Z,14.10
2018-11-12T15:37:57.341Z,14.10
2018-11-12T15:40:24.339Z,14.10
2018-11-12T15:42:51.720Z,14.00
2018-11-12T15:45:20.167Z,14.00
2018-11-12T15:47:47.531Z,14.00
2018-11-12T15:50:16.486Z,14.00
2018-11-12T15:52:44.909Z,14.10
2018-11-12T15:55:11.947Z,14.10
2018-11-12T15:57:39.299Z,14.20
2018-11-12T16:00:10.072Z,14.10
2018-11-12T16:02:37.128Z,14.10
2018-11-12T16:05:04.979Z,14.10
2018-11-12T16:07:32.102Z,14.00
2018-11-12T16:09:59.314Z,14.00
2018-11-12T16:12:26.459Z,14.00
2018-11-12T16:14:54.021Z,14.00
2018-11-12T16:17:21.423Z,13.90
2018-11-12T16:19:48.548Z,14.00
2018-11-12T16:22:19.095Z,13.90
2018-11-12T16:24:46.152Z,13.90
2018-11-12T16:27:13.172Z,13.90
2018-11-12T16:29:41.427Z,13.90
2018-11-12T16:32:08.464Z,13.80
2018-11-12T16:34:35.466Z,13.80
2018-11-12T16:37:02.539Z,13.70
2018-11-12T16:39:29.555Z,13.70
2018-11-12T16:41:56.620Z,13.70
2018-11-12T16:44:23.729Z,13.70
2018-11-12T16:46:50.821Z,13.70
2018-11-12T16:49:17.847Z,13.70
2018-11-12T16:51:45.064Z,13.60
2018-11-12T16:54:12.093Z,13.60
2018-11-12T16:56:40.447Z,13.70
2018-11-12T16:59:07.566Z,13.60
2018-11-12T17:01:34.727Z,13.70
2018-11-12T17:04:01.896Z,13.70
2018-11-12T17:06:29.835Z,13.70
2018-11-12T17:08:56.883Z,13.70
2018-11-12T17:11:24.152Z,13.60
2018-11-12T17:13:51.232Z,13.60
2018-11-12T17:16:18.288Z,13.60
2018-11-12T17:18:45.287Z,13.50
2018-11-12T17:21:12.299Z,13.60
2018-11-12T17:23:39.512Z,13.60
2018-11-12T17:26:06.494Z,13.60
2018-11-12T17:28:33.751Z,13.60
2018-11-12T17:31:01.038Z,13.60
2018-11-12T17:33:28.038Z,13.60
2018-11-12T17:35:55.155Z,13.60
2018-11-12T17:38:22.177Z,13.60
2018-11-12T17:40:49.207Z,13.50
2018-11-12T17:43:16.489Z,13.50
2018-11-12T17:45:43.518Z,13.40
2018-11-12T17:48:10.524Z,13.50
2018-11-12T17:50:37.531Z,13.40
2018-11-12T17:53:04.772Z,13.40
2018-11-12T17:55:32.654Z,13.40
2018-11-12T17:58:00.271Z,13.30
2018-11-12T18:00:30.033Z,13.30
2018-11-12T18:02:57.135Z,13.30
2018-11-12T18:05:25.475Z,13.30
2018-11-12T18:07:52.543Z,13.20
2018-11-12T18:10:19.502Z,13.20
2018-11-12T18:12:46.612Z,13.20
2018-11-12T18:15:15.880Z,13.20
2018-11-12T18:17:43.053Z,13.20
2018-11-12T18:20:12.361Z,13.20
2018-11-12T18:22:39.526Z,13.10
2018-11-12T18:25:06.969Z,13.20
2018-11-12T18:27:34.394Z,13.10
2018-11-12T18:30:01.504Z,13.10
2018-11-12T18:32:28.663Z,13.10
2018-11-12T18:34:55.728Z,13.00
2018-11-12T18:37:22.785Z,13.00
2018-11-12T18:39:49.846Z,13.00
2018-11-12T18:42:17.037Z,13.00
2018-11-12T18:44:44.227Z,13.00
2018-11-12T18:47:11.266Z,12.90
2018-11-12T18:49:38.580Z,12.90
2018-11-12T18:52:05.594Z,12.90
2018-11-12T18:54:32.635Z,12.80
2018-11-12T18:56:59.724Z,12.80
2018-11-12T18:59:26.904Z,12.80
2018-11-12T19:01:53.936Z,12.70
2018-11-12T19:04:21.083Z,12.70
2018-11-12T19:06:48.135Z,12.70
2018-11-12T19:09:15.176Z,12.70
2018-11-12T19:11:42.670Z,12.60
2018-11-12T19:14:09.657Z,12.60
2018-11-12T19:16:36.683Z,12.60
2018-11-12T19:19:03.771Z,12.60
2018-11-12T19:21:30.823Z,12.60
2018-11-12T19:23:57.859Z,12.50
2018-11-12T19:26:25.314Z,12.40
2018-11-12T19:28:52.704Z,12.50
2018-11-12T19:31:19.757Z,12.40
2018-11-12T19:33:46.968Z,12.40
2018-11-12T19:36:13.968Z,12.40
2018-11-12T19:38:41.044Z,12.30
2018-11-12T19:41:08.218Z,12.30
2018-11-12T19:43:35.236Z,12.30
2018-11-12T19:46:02.294Z,12.30
2018-11-12T19:48:29.662Z,12.30
2018-11-12T19:50:56.910Z,12.30
2018-11-12T19:53:24.189Z,12.30
2018-11-12T19:55:51.441Z,12.20
2018-11-12T19:58:18.519Z,12.20
2018-11-12T20:00:45.547Z,12.20
2018-11-12T20:03:12.576Z,12.20
2018-11-12T20:05:39.571Z,12.20
2018-11-12T20:08:06.762Z,12.10
2018-11-12T20:10:33.802Z,12.10
2018-11-12T20:13:00.823Z,12.10
2018-11-12T20:15:27.837Z,12.10
2018-11-12T20:17:55.851Z,12.10
2018-11-12T20:20:24.395Z,12.10
2018-11-12T20:22:51.734Z,12.10
2018-11-12T20:25:19.260Z,12.10
2018-11-12T20:27:46.836Z,12.10
2018-11-12T20:30:18.496Z,12.10
2018-11-12T20:32:45.850Z,12.10
2018-11-12T20:35:13.165Z,12.10
2018-11-12T20:37:40.436Z,12.10
2018-11-12T20:40:08.401Z,12.10
2018-11-12T20:42:35.463Z,12.10
2018-11-12T20:45:02.743Z,12.10
2018-11-12T20:47:29.784Z,12.00
2018-11-12T20:49:56.799Z,12.10
2018-11-12T20:52:23.883Z,12.00
2018-11-12T20:54:50.900Z,12.00
2018-11-12T20:57:17.901Z,12.00
2018-11-12T20:59:45.090Z,12.00
2018-11-12T21:02:12.092Z,12.00
2018-11-12T21:04:39.095Z,12.00
2018-11-12T21:07:06.234Z,12.00
2018-11-12T21:09:33.315Z,12.00
2018-11-12T21:12:00.343Z,12.00
2018-11-12T21:14:27.415Z,12.00
2018-11-12T21:16:54.480Z,12.00
2018-11-12T21:19:21.552Z,12.00
2018-11-12T21:21:48.730Z,12.10
2018-11-12T21:26:50.079Z,12.20
2018-11-12T21:29:17.133Z,12.20
2018-11-12T21:31:44.131Z,12.20
2018-11-12T21:34:11.743Z,12.30
2018-11-12T21:36:39.115Z,12.30
2018-11-12T21:39:10.284Z,12.30
2018-11-12T21:41:37.325Z,12.40
2018-11-12T21:44:04.953Z,12.40
2018-11-12T21:46:32.445Z,12.50
2018-11-12T21:48:59.542Z,12.40
2018-11-12T21:51:26.604Z,12.40
2018-11-12T21:53:53.645Z,12.50
2018-11-12T21:56:20.678Z,12.50
2018-11-12T21:58:47.793Z,12.50
2018-11-12T22:01:14.839Z,12.50
2018-11-12T22:03:41.860Z,12.50
2018-11-12T22:06:08.923Z,12.50
2018-11-12T22:08:36.075Z,12.50
2018-11-12T22:11:03.249Z,12.50
2018-11-12T22:13:30.280Z,12.50
2018-11-12T22:15:57.319Z,12.50
2018-11-12T22:18:24.368Z,12.60
2018-11-12T22:20:51.434Z,12.60
2018-11-12T22:23:19.735Z,12.60
2018-11-12T22:25:48.237Z,12.70
2018-11-12T22:28:15.550Z,12.70
2018-11-12T22:30:42.573Z,12.70
2018-11-12T22:33:09.604Z,12.70
2018-11-12T22:35:36.672Z,12.70
2018-11-12T22:38:04.069Z,12.70
2018-11-12T22:40:31.102Z,12.80
2018-11-12T22:42:58.153Z,12.80
2018-11-12T22:45:25.531Z,12.80
2018-11-12T22:47:52.960Z,12.80
2018-11-12T22:50:20.010Z,12.80
2018-11-12T22:52:47.056Z,12.80
2018-11-12T22:55:15.398Z,12.80
2018-11-12T22:57:42.423Z,12.80
2018-11-12T23:00:20.484Z,12.80
2018-11-12T23:02:48.209Z,12.70
2018-11-12T23:05:15.680Z,12.70
2018-11-12T23:07:43.503Z,12.60
2018-11-12T23:10:10.604Z,12.60
2018-11-12T23:12:37.732Z,12.50
2018-11-12T23:15:06.068Z,12.50
2018-11-12T23:17:33.129Z,12.50
2018-11-12T23:20:00.197Z,12.40
2018-11-12T23:22:28.025Z,12.50
2018-11-12T23:24:55.037Z,12.40
2018-11-12T23:27:22.473Z,12.40
2018-11-12T23:29:49.501Z,12.40
2018-11-12T23:32:16.516Z,12.30
2018-11-12T23:34:43.515Z,12.30
2018-11-12T23:37:10.569Z,12.30
2018-11-12T23:39:37.828Z,12.30
2018-11-12T23:42:05.045Z,12.30
2018-11-12T23:44:32.072Z,12.30
2018-11-12T23:46:59.408Z,12.30
2018-11-12T23:49:26.108Z,12.30
2018-11-12T23:51:53.616Z,12.20
2018-11-12T23:54:20.643Z,12.20
2018-11-12T23:56:47.638Z,12.20
2018-11-12T23:59:14.919Z,12.20
